Time,TemperatureF,DewpointF,PressureIn,WindDirection,WindDirectionDegrees,WindSpeedMPH,WindSpeedGustMPH,Humidity,HourlyPrecipIn,Conditions,Clouds,dailyrainin,SolarRadiationWatts/m^2,SoftwareType,DateUTC
2013-04-06 00:00:00,31.0,24.0,-100.00,SSE,157,3.0,-999.0,76,-99.99,,,-99.99,0.000000,,2013-04-06 05:00:00,
2013-04-06 00:43:00,31.0,24.0,-100.00,SSE,157,3.0,-999.0,76,-99.99,,,-99.99,0.000000,,2013-04-06 05:43:00,
2013-04-06 00:52:00,31.0,24.0,-100.00,SSE,157,3.0,-999.0,76,-99.99,,,-99.99,0.000000,,2013-04-06 05:52:00,
2013-04-06 01:00:00,31.0,23.0,-100.00,SSE,157,3.0,-999.0,69,-99.99,,,-99.99,0.000000,,2013-04-06 06:00:00,
2013-04-06 01:43:00,31.0,23.0,-100.00,SSE,157,3.0,-999.0,69,-99.99,,,-99.99,0.000000,,2013-04-06 06:43:00,
2013-04-06 01:53:00,31.0,23.0,-100.00,SSE,157,3.0,-999.0,69,-99.99,,,-99.99,0.000000,,2013-04-06 06:53:00,
2013-04-06 02:00:00,31.0,22.0,-100.00,SSE,157,3.0,-999.0,68,-99.99,,,-99.99,0.000000,,2013-04-06 07:00:00,
2013-04-06 02:45:00,31.0,22.0,-100.00,SSE,157,3.0,-999.0,68,-99.99,,,-99.99,0.000000,,2013-04-06 07:45:00,
2013-04-06 02:53:00,31.0,22.0,-100.00,SSE,157,3.0,-999.0,68,-99.99,,,-99.99,0.000000,,2013-04-06 07:53:00,
2013-04-06 03:00:00,32.0,24.0,-100.00,SSE,157,3.0,-999.0,71,-99.99,,,-99.99,0.000000,,2013-04-06 08:00:00,
2013-04-06 03:43:00,32.0,24.0,-100.00,SSE,157,3.0,-999.0,71,-99.99,,,-99.99,0.000000,,2013-04-06 08:43:00,
2013-04-06 03:52:00,32.0,24.0,-100.00,SSE,157,3.0,-999.0,71,-99.99,,,-99.99,0.000000,,2013-04-06 08:52:00,
2013-04-06 04:00:00,32.0,23.0,-100.00,SSE,157,4.0,-999.0,68,-99.99,,,-99.99,0.000000,,2013-04-06 09:00:00,
2013-04-06 04:43:00,32.0,23.0,-100.00,SSE,157,4.0,-999.0,68,-99.99,,,-99.99,0.000000,,2013-04-06 09:43:00,
2013-04-06 04:53:00,32.0,23.0,-100.00,SSE,157,4.0,-999.0,68,-99.99,,,-99.99,0.000000,,2013-04-06 09:53:00,
2013-04-06 05:00:00,32.0,24.0,-100.00,SE,135,4.0,-999.0,70,-99.99,,,-99.99,0.000000,,2013-04-06 10:00:00,
2013-04-06 05:43:00,32.0,24.0,-100.00,SE,135,4.0,-999.0,70,-99.99,,,-99.99,0.000000,,2013-04-06 10:43:00,
2013-04-06 05:53:00,32.0,24.0,-100.00,SE,135,4.0,-999.0,70,-99.99,,,-99.99,0.000000,,2013-04-06 10:53:00,
2013-04-06 06:00:00,33.0,23.0,-100.00,SE,135,7.0,-999.0,67,-99.99,,,-99.99,0.000000,,2013-04-06 11:00:00,
2013-04-06 06:43:00,33.0,23.0,-100.00,SE,135,7.0,-999.0,67,-99.99,,,-99.99,0.000000,,2013-04-06 11:43:00,
2013-04-06 06:53:00,33.0,23.0,-100.00,SE,135,7.0,-999.0,67,-99.99,,,-99.99,0.000000,,2013-04-06 11:53:00,
2013-04-06 07:00:00,31.0,24.0,-100.00,SE,135,10.0,-999.0,76,-99.99,,,-99.99,1.160000,,2013-04-06 12:00:00,
2013-04-06 07:44:00,31.0,24.0,-100.00,SE,135,10.0,-999.0,76,-99.99,,,-99.99,1.160000,,2013-04-06 12:44:00,
2013-04-06 07:53:00,31.0,24.0,-100.00,SE,135,10.0,-999.0,76,-99.99,,,-99.99,1.160000,,2013-04-06 12:53:00,
2013-04-06 08:00:00,29.0,28.0,-100.00,SE,135,9.0,-999.0,97,-99.99,,,-99.99,32.480000,,2013-04-06 13:00:00,
2013-04-06 08:43:00,29.0,28.0,-100.00,SE,135,9.0,-999.0,97,-99.99,,,-99.99,32.480000,,2013-04-06 13:43:00,
2013-04-06 08:53:00,29.0,28.0,-100.00,SE,135,9.0,-999.0,97,-99.99,,,-99.99,32.480000,,2013-04-06 13:53:00,
2013-04-06 09:00:00,30.0,29.0,-100.00,SE,135,11.0,-999.0,96,-99.99,,,-99.99,70.760002,,2013-04-06 14:00:00,
2013-04-06 09:43:00,30.0,29.0,-100.00,SE,135,11.0,-999.0,96,-99.99,,,-99.99,70.760002,,2013-04-06 14:43:00,
2013-04-06 09:53:00,30.0,29.0,-100.00,SE,135,11.0,-999.0,96,-99.99,,,-99.99,70.760002,,2013-04-06 14:53:00,
2013-04-06 10:00:00,32.0,30.0,-100.00,SE,135,11.0,-999.0,92,0.02,,,-99.99,172.839996,,2013-04-06 15:00:00,
2013-04-06 10:43:00,32.0,30.0,-100.00,SE,135,11.0,-999.0,92,0.02,,,-99.99,172.839996,,2013-04-06 15:43:00,
2013-04-06 10:53:00,32.0,30.0,-100.00,SE,135,11.0,-999.0,92,0.02,,,-99.99,172.839996,,2013-04-06 15:53:00,
2013-04-06 11:00:00,33.0,30.0,-100.00,SE,135,11.0,-999.0,87,-99.99,,,-99.99,200.679993,,2013-04-06 16:00:00,
2013-04-06 11:43:00,33.0,30.0,-100.00,SE,135,11.0,-999.0,87,-99.99,,,-99.99,200.679993,,2013-04-06 16:43:00,
2013-04-06 11:53:00,33.0,30.0,-100.00,SE,135,11.0,-999.0,87,-99.99,,,-99.99,200.679993,,2013-04-06 16:53:00,
2013-04-06 12:00:00,35.0,30.0,-100.00,SE,135,11.0,-999.0,81,-99.99,,,-99.99,258.679993,,2013-04-06 17:00:00,
2013-04-06 12:43:00,35.0,30.0,-100.00,SE,135,11.0,-999.0,81,-99.99,,,-99.99,258.679993,,2013-04-06 17:43:00,
2013-04-06 12:52:00,35.0,30.0,-100.00,SE,135,11.0,-999.0,81,-99.99,,,-99.99,258.679993,,2013-04-06 17:52:00,
2013-04-06 13:00:00,35.0,32.0,-100.00,SE,135,12.0,-999.0,86,0.01,,,-99.99,163.559998,,2013-04-06 18:00:00,
2013-04-06 13:43:00,35.0,32.0,-100.00,SE,135,12.0,-999.0,86,0.01,,,-99.99,163.559998,,2013-04-06 18:43:00,
2013-04-06 13:52:00,35.0,32.0,-100.00,SE,135,12.0,-999.0,86,0.01,,,-99.99,163.559998,,2013-04-06 18:52:00,
2013-04-06 14:00:00,36.0,32.0,-100.00,SSE,157,9.0,-999.0,85,0.02,,,-99.99,148.479996,,2013-04-06 19:00:00,
2013-04-06 14:42:00,36.0,32.0,-100.00,SSE,157,9.0,-999.0,85,0.02,,,-99.99,148.479996,,2013-04-06 19:42:00,
2013-04-06 14:54:00,36.0,32.0,-100.00,SSE,157,9.0,-999.0,85,0.02,,,-99.99,148.479996,,2013-04-06 19:54:00,
2013-04-06 15:00:00,38.0,34.0,-100.00,SSE,157,11.0,-999.0,84,0.01,,,-99.99,230.839996,,2013-04-06 20:00:00,
2013-04-06 15:42:00,38.0,34.0,-100.00,SSE,157,11.0,-999.0,84,0.01,,,-99.99,230.839996,,2013-04-06 20:42:00,
2013-04-06 15:52:00,38.0,34.0,-100.00,SSE,157,11.0,-999.0,84,0.01,,,-99.99,230.839996,,2013-04-06 20:52:00,
2013-04-06 17:00:00,39.0,32.0,-100.00,SSE,157,10.0,-999.0,74,-99.99,,,-99.99,46.400002,,2013-04-06 22:00:00,
2013-04-06 17:44:00,39.0,32.0,-100.00,SSE,157,10.0,-999.0,74,-99.99,,,-99.99,46.400002,,2013-04-06 22:44:00,
2013-04-06 17:53:00,39.0,32.0,-100.00,SSE,157,10.0,-999.0,74,-99.99,,,-99.99,46.400002,,2013-04-06 22:53:00,
2013-04-06 18:00:00,39.0,32.0,-100.00,SSE,157,8.0,-999.0,75,-99.99,,,-99.99,19.719999,,2013-04-06 23:00:00,
2013-04-06 18:43:00,39.0,32.0,-100.00,SSE,157,8.0,-999.0,75,-99.99,,,-99.99,19.719999,,2013-04-06 23:43:00,
2013-04-06 18:53:00,39.0,32.0,-100.00,SSE,157,8.0,-999.0,75,-99.99,,,-99.99,19.719999,,2013-04-06 23:53:00,
2013-04-06 20:00:00,39.0,35.0,-100.00,SSE,157,6.0,-999.0,84,0.01,,,-99.99,0.000000,,2013-04-07 01:00:00,
2013-04-06 20:43:00,39.0,35.0,-100.00,SSE,157,6.0,-999.0,84,0.01,,,-99.99,0.000000,,2013-04-07 01:43:00,
2013-04-06 20:53:00,39.0,35.0,-100.00,SSE,157,6.0,-999.0,84,0.01,,,-99.99,0.000000,,2013-04-07 01:53:00,
2013-04-06 21:00:00,38.0,36.0,-100.00,SSE,157,4.0,-999.0,91,0.02,,,-99.99,0.000000,,2013-04-07 02:00:00,
2013-04-06 21:43:00,38.0,36.0,-100.00,SSE,157,4.0,-999.0,91,0.02,,,-99.99,0.000000,,2013-04-07 02:43:00,
2013-04-06 21:52:00,38.0,36.0,-100.00,SSE,157,4.0,-999.0,91,0.02,,,-99.99,0.000000,,2013-04-07 02:52:00,
2013-04-06 22:00:00,38.0,37.0,-100.00,SE,135,5.0,-999.0,93,0.03,,,-99.99,0.000000,,2013-04-07 03:00:00,
2013-04-06 22:44:00,38.0,37.0,-100.00,SE,135,5.0,-999.0,93,0.03,,,-99.99,0.000000,,2013-04-07 03:44:00,
2013-04-06 22:54:00,38.0,37.0,-100.00,SE,135,5.0,-999.0,93,0.03,,,-99.99,0.000000,,2013-04-07 03:54:00,
2013-04-06 23:00:00,38.0,37.0,-100.00,SSE,157,4.0,-999.0,96,0.07,,,-99.99,0.000000,,2013-04-07 04:00:00,
2013-04-06 23:43:00,38.0,37.0,-100.00,SSE,157,4.0,-999.0,96,0.07,,,-99.99,0.000000,,2013-04-07 04:43:00,
2013-04-06 23:53:00,38.0,37.0,-100.00,SSE,157,4.0,-999.0,96,0.07,,,-99.99,0.000000,,2013-04-07 04:53:00,